Historyczne dane pomiarowe

Dodano dane terminowe – wersja testowa.

Dane z okresu 1951-2019

Wersja bazy: 1.34 [2019-03-16, lista zmian], aktualizacja planowana na 2019-04-15

Dane meteo z obszaru Polski uzyskane na podstawie danych udostępnionych przez Instytut Meteorologii i Gospodarki Wodnej – Państwowy Instytut Badawczy.

 

Wybierz Datę:    

       

TemperaturaWilgotnośćWiatrCiśnienieOpadyŚniegCzas trwania zjawisk
 Stacja t tx tn tng RH VA  wxwx mslp ppp RRR   cm mm wxwxwxwxwxwxwx
1952-02-26 -0.1 1.3 -3.1- 93.8- 8.0 3.0---- 3.8------------
1952-02-27 -4.6 0.7 -7.7- 90.5- 8.0 2.7---- 0.0-- 2---------
1952-02-28 -6.1 -3.7 -9.0- 81.8- 7.3 1.0---- 0.0-- 2---------
1952-02-29 -3.4 -2.4 -7.0- 94.5- 8.0 2.7---- 1.7-- 2---------
1952-03-01 -2.0 1.2 -4.4- 87.0- 6.3 6.0---- 3.4-- 4---------
1952-03-02 -4.4 -0.8 -7.1- 84.3- 5.0 5.7---- 0.0-- 6---------
1952-03-03 -3.5 0.7-12.6- 79.0- 6.0 1.0---- 0.0-- 6---------
1952-03-04 -8.9 -1.7-12.6- 74.3- 1.0 2.0---- 0.0-- 5---------
1952-03-05 -5.3 -2.7-12.7- 83.0- 5.0 6.7---- 0.0-- 5---------
1952-03-06 -9.5 -3.7-12.6- 76.0- 0.7 2.3---- 0.0-- 5---------
1952-03-07 -7.8 -3.0-12.5- 68.8- 5.0 4.7---- 0.0-- 5---------
1952-03-08 -5.7 1.0-13.6- 60.3- 0.0 3.0---- 0.0-- 5---------
1952-03-09 -3.8 2.8-11.9- 60.3- 0.0 3.3---- 0.0-- 5---------
1952-03-10 -0.7 6.1 -8.5- 65.3- 0.0 2.0---- 0.0-- 4---------
1952-03-11 1.7 6.0 -5.1- 62.5- 0.0 3.0---- 0.0-- 3---------
1952-03-12 1.6 3.2 0.3- 90.3- 8.0 3.0---- 0.0------------
1952-03-13 -1.3 2.3 -4.4- 93.8- 6.0 5.3---- 1.9------------
1952-03-14 -5.6 -3.1 -8.1- 75.3- 1.7 6.7---- 0.0-- 4---------
1952-03-15 -1.0 1.7 -8.4- 80.5- 7.7 3.0---- 0.0-- 4---------
1952-03-16 0.6 5.0 -1.5- 75.3- 4.7 4.7---- 0.0------------
1952-03-17 0.0 4.2 -3.3- 79.5- 3.7 4.0---- 0.0------------
1952-03-18 -5.3 -1.4 -7.0- 65.5- 1.3 2.7---- 0.0------------
1952-03-19 -5.6 0.7-12.6- 75.0- 4.7 3.7---- 0.4------------
1952-03-20 -6.2 -0.9-16.1- 83.8- 4.7 3.7---- 0.0-- 3---------
1952-03-21 -6.3 -3.4 -8.5- 76.8- 5.0 2.7---- 0.0-- 3---------
1952-03-22 -8.2 -2.6-15.1- 72.8- 1.0 1.3---- 0.0------------
1952-03-23 -6.6 -2.2-10.8- 72.3- 8.0 2.3---- 0.0------------
1952-03-24 -0.8 3.0 -8.1- 93.5- 8.0 4.7---- 2.0------------
1952-03-25 -5.5 0.3 -7.6- 73.8- 2.7 3.3---- 0.4-- 2---------
1952-03-26 -8.9 -6.0-11.6- 66.8- 3.0 3.0---- 0.0-- 3---------
99.8 ms

 

Źródłem pochodzenia danych jest Instytut Meteorologii i Gospodarki Wodnej – Państwowy Instytut Badawczy. Dane Instytutu Meteorologii i Gospodarki Wodnej – Państwowego Instytutu Badawczego zostały przetworzone.

Dane źródłowe można odnaleźć na stronie https://dane.imgw.pl